Time,TemperatureF,DewpointF,PressureIn,WindDirection,WindDirectionDegrees,WindSpeedMPH,WindSpeedGustMPH,Humidity,HourlyPrecipIn,Conditions,Clouds,dailyrainin,SoftwareType,DateUTC
2016-02-14 00:00:00,10.1,-2.6,30.21,SSE,158,4.7,4.7,56,0.00,,,0.00,WUHU216HW,2016-02-14 06:00:00,
2016-02-14 00:05:00,10.1,-2.6,30.21,South,180,7.8,7.8,56,0.00,,,0.00,WUHU216HW,2016-02-14 06:05:00,
2016-02-14 00:10:00,10.1,-2.6,30.21,South,180,7.8,7.8,56,0.00,,,0.00,WUHU216HW,2016-02-14 06:10:00,
2016-02-14 00:30:00,10.4,-2.2,30.19,ESE,113,6.5,6.5,56,0.00,,,0.00,WUHU216HW,2016-02-14 06:30:00,
2016-02-14 00:35:00,10.4,-1.9,30.19,ESE,113,4.0,6.5,57,0.00,,,0.00,WUHU216HW,2016-02-14 06:35:00,
2016-02-14 00:40:00,10.4,-1.9,30.19,ESE,113,4.0,6.5,57,0.00,,,0.00,WUHU216HW,2016-02-14 06:40:00,
2016-02-14 01:00:00,11.0,-1.3,30.18,SSE,158,4.0,4.0,57,0.00,,,0.00,WUHU216HW,2016-02-14 07:00:00,
2016-02-14 01:05:00,11.0,-1.3,30.18,SE,135,3.4,4.0,57,0.00,,,0.00,WUHU216HW,2016-02-14 07:05:00,
2016-02-14 01:10:00,11.0,-1.3,30.18,SE,135,3.4,3.4,57,0.00,,,0.00,WUHU216HW,2016-02-14 07:10:00,
2016-02-14 01:30:00,11.5,0.3,30.16,SE,135,4.3,4.3,60,0.00,,,0.00,WUHU216HW,2016-02-14 07:30:00,
2016-02-14 01:35:00,11.5,0.3,30.16,SE,135,5.6,5.6,60,0.00,,,0.00,WUHU216HW,2016-02-14 07:35:00,
2016-02-14 01:40:00,11.5,0.3,30.16,SE,135,5.6,5.6,60,0.00,,,0.00,WUHU216HW,2016-02-14 07:40:00,
2016-02-14 02:00:00,11.9,1.3,30.15,ESE,113,5.8,5.8,62,0.00,,,0.00,WUHU216HW,2016-02-14 08:00:00,
2016-02-14 02:05:00,11.9,1.3,30.15,ESE,113,5.8,5.8,62,0.00,,,0.00,WUHU216HW,2016-02-14 08:05:00,
2016-02-14 02:10:00,11.9,1.3,30.15,ESE,113,5.8,5.8,62,0.00,,,0.00,WUHU216HW,2016-02-14 08:10:00,
2016-02-14 02:30:00,12.2,1.9,30.13,East,90,4.5,4.5,63,0.00,,,0.00,WUHU216HW,2016-02-14 08:30:00,
2016-02-14 02:35:00,12.2,1.9,30.13,East,90,4.9,4.9,63,0.00,,,0.00,WUHU216HW,2016-02-14 08:35:00,
2016-02-14 02:40:00,12.2,1.9,30.13,East,90,4.9,4.9,63,0.00,,,0.00,WUHU216HW,2016-02-14 08:40:00,
2016-02-14 03:00:00,12.6,2.6,30.12,SSE,158,7.2,7.2,64,0.00,,,0.00,WUHU216HW,2016-02-14 09:00:00,
2016-02-14 03:05:00,12.6,2.6,30.12,SSE,158,4.9,7.2,64,0.00,,,0.00,WUHU216HW,2016-02-14 09:05:00,
2016-02-14 03:10:00,12.6,2.6,30.12,SSE,158,4.9,7.2,64,0.00,,,0.00,WUHU216HW,2016-02-14 09:10:00,
2016-02-14 03:30:00,12.2,3.0,30.09,East,90,4.7,4.7,66,0.00,,,0.00,WUHU216HW,2016-02-14 09:30:00,
2016-02-14 03:35:00,12.2,3.0,30.09,East,90,4.7,4.7,66,0.00,,,0.00,WUHU216HW,2016-02-14 09:35:00,
2016-02-14 03:40:00,12.2,3.0,30.09,East,90,4.7,4.7,66,0.00,,,0.00,WUHU216HW,2016-02-14 09:40:00,
2016-02-14 04:00:00,11.9,3.0,30.08,ESE,113,4.5,4.5,67,0.00,,,0.00,WUHU216HW,2016-02-14 10:00:00,
2016-02-14 04:05:00,11.9,3.0,30.08,ESE,113,6.5,6.5,67,0.00,,,0.00,WUHU216HW,2016-02-14 10:05:00,
2016-02-14 04:10:00,11.9,3.0,30.08,ESE,113,6.5,6.5,67,0.00,,,0.00,WUHU216HW,2016-02-14 10:10:00,
2016-02-14 04:30:00,12.1,3.4,30.05,ESE,113,8.5,8.5,68,0.00,,,0.00,WUHU216HW,2016-02-14 10:30:00,
2016-02-14 04:40:00,12.1,3.4,30.05,ESE,113,8.5,8.5,68,0.00,,,0.00,WUHU216HW,2016-02-14 10:40:00,